Station: Charles Point  

  Atmospheric Gas Attenuation - ITU Rec 676-11   ----------------- dB/100km -----------------
Date Time Temp RH % AH g/m3 Dew Point Wind Direction Speed kph Gust kph Barometer mB Rainfall Since 9am 24GHz 47GHz 76GHz 122GHz 134GHz 241GHz
08/05 12:00 29.3 44 12.85 15.8 15 24 1011.9 0 27.7 27.8 47.7 125.8 129.8 450.1
08/05 11:50 29.2 44 12.78 15.7 13 20 1012 0 27.5 27.8 47.5 125.3 129.1 447.7
08/05 11:40 29.3 44 12.85 16.1 9 13 1012.1 0 27.7 27.8 47.7 125.8 129.8 450.1
08/05 11:30 28.7 45 12.72 15.6 13 22 1012.3 0 27.4 27.8 47.6 125.5 129.2 448.0
08/05 11:20 28.3 44 12.17 15.2 13 20 1012.4 0 26.3 27.1 45.8 120.6 123.1 426.7
08/05 11:10 27.8 44 11.84 14.7 20 24 1012.7 0 25.7 26.8 44.8 118.1 119.9 415.3
08/05 11:00 28.1 45 12.31 15.1 15 26 1012.7 0 26.6 27.4 46.4 122.4 125.1 433.8
08/05 10:50 27.7 45 12.04 15 11 19 1012.8 0 26.1 27.1 45.7 120.3 122.5 424.4
08/05 10:40 27.3 45 11.78 14.6 19 22 1012.8 0 25.6 26.9 44.9 118.3 119.9 415.4
08/05 10:30 27.2 47 12.23 14.9 17 33 1013 0 26.5 27.6 46.7 123.0 125.6 435.4
08/05 10:20 26.8 47 11.96 14.8 17 24 1013 0 26.0 27.3 45.9 120.9 122.9 425.8
08/05 10:10 26.7 49 12.4 15.1 11 20 1012.9 0 26.9 28.0 47.6 125.4 128.5 445.5
08/05 10:00 26.3 48 11.88 14.7 15 30 1013 0 25.8 27.3 45.9 120.8 122.7 425.0
08/05 09:50 26.1 48 11.75 14.5 13 17 1013 0 25.6 27.2 45.5 119.8 121.4 420.4
08/05 09:40 25.7 50 11.97 14.5 11 19 1013 0 26.1 27.6 46.5 122.6 124.8 432.2
08/05 09:30 25.6 49 11.67 14.1 17 39 1013 0 25.4 27.2 45.5 119.7 121.2 419.6
08/05 09:20 25.4 49 11.54 13.9 13 20 1012.9 0 25.2 27.1 45.1 118.7 119.8 415.0
08/05 09:10 25.2 49 11.41 14 17 19 1012.9 0 24.9 26.9 44.7 117.7 118.5 410.3
08/05 09:00 25 51 11.74 14.2 13 22 1012.8 0 25.6 27.5 46.1 121.3 123.0 425.8
08/05 08:50 24.6 51 11.48 13.8 11 17 1012.7 0 25.1 27.2 45.3 119.3 120.3 416.5
08/05 08:40 24.4 52 11.57 13.9 11 15 1012.7 0 25.3 27.4 45.7 120.5 121.7 421.5
08/05 08:30 23.8 52 11.19 13.4 15 30 1012.6 0 24.5 27.0 44.6 117.5 117.9 407.8
08/05 08:20 23.8 52 11.19 13.6 17 24 1012.6 0 24.5 27.0 44.6 117.5 117.9 407.8
08/05 08:10 23.4 52 10.93 13.2 13 20 1012.6 0 24.0 26.7 43.9 115.4 115.2 398.4
08/05 08:00 23.3 54 11.29 13.5 13 24 1012.6 0 24.8 27.3 45.3 119.2 119.9 414.8
08/05 07:50 23 54 11.1 13.4 17 28 1012.4 0 24.4 27.1 44.7 117.7 117.9 407.9
08/05 07:40 22.7 55 11.11 13.4 11 19 1012.4 0 24.4 27.2 44.9 118.3 118.5 409.9
08/05 07:30 22.4 57 11.32 13.5 13 24 1012.3 0 24.9 27.6 45.9 120.9 121.6 420.8
08/05 07:20 22.1 56 10.93 13.1 17 20 1012.1 0 24.1 27.1 44.5 117.2 117.1 404.9
08/05 07:10 21.7 59 11.25 13.3 15 19 1012 0 24.8 27.7 46.0 121.2 121.8 421.3
08/05 07:00 21.6 58 11 13.2 11 19 1011.9 0 24.3 27.4 45.1 118.7 118.7 410.5
08/05 06:50 21.7 59 11.25 13.3 11 15 1011.9 0 24.8 27.7 46.0 121.2 121.8 421.3
08/05 06:40 21.7 59 11.25 13.3 11 15 1011.8 0 24.8 27.7 46.0 121.2 121.8 421.2
08/05 06:30 21.7 59 11.25 13.3 11 20 1011.8 0 24.8 27.7 46.0 121.2 121.8 421.2
08/05 06:20 21.7 59 11.25 13.3 11 19 1011.6 0 24.8 27.7 46.0 121.1 121.7 421.2
08/05 06:10 21.7 57 10.87 13 11 13 1011.6 0 24.0 27.1 44.5 117.2 116.8 404.1
08/05 06:00 21.8 58 11.13 13.2 11 19 1011.6 0 24.5 27.5 45.5 119.7 120.0 415.2
08/05 05:50 21.8 57 10.94 13.1 9 13 1011.5 0 24.1 27.2 44.7 117.7 117.6 406.7
08/05 05:40 21.9 57 11 13.2 13 19 1011.5 0 24.3 27.2 44.9 118.2 118.2 408.8
08/05 05:30 21.9 58 11.19 13.3 11 19 1011.6 0 24.7 27.6 45.7 120.2 120.7 417.4
08/05 05:20 22 57 11.06 13.1 13 20 1011.4 0 24.4 27.3 45.1 118.7 118.8 411.0
08/05 05:10 22.1 56 10.93 13.1 11 19 1011.3 0 24.1 27.1 44.5 117.2 117.0 404.6
08/05 05:00 22.2 56 10.99 13 13 22 1011.3 0 24.2 27.1 44.7 117.6 117.6 406.8
08/05 04:50 22.1 56 10.93 13.1 11 17 1011.3 0 24.1 27.1 44.5 117.2 117.0 404.6
08/05 04:40 22.1 56 10.93 13.1 11 15 1011.2 0 24.1 27.1 44.5 117.2 117.0 404.6
08/05 04:30 22.1 57 11.13 13.2 11 20 1011.3 0 24.5 27.4 45.3 119.2 119.5 413.6
08/05 04:20 22.1 56 10.93 13.1 13 20 1011.2 0 24.1 27.1 44.5 117.2 117.0 404.6
08/05 04:10 22.3 56 11.06 13.1 11 15 1011.2 0 24.4 27.2 44.9 118.2 118.3 409.3
08/05 04:00 22.5 55 10.98 13 11 20 1011.1 0 24.2 27.0 44.5 117.1 117.0 404.7
08/05 03:50 22.6 55 11.05 13.1 9 17 1011.2 0 24.3 27.1 44.7 117.7 117.8 407.4
08/05 03:40 22.6 55 11.05 13.1 11 17 1011.2 0 24.3 27.1 44.7 117.7 117.8 407.4
08/05 03:30 22.5 56 11.18 13.3 11 20 1011.3 0 24.6 27.3 45.3 119.2 119.6 413.7
08/05 03:20 22.8 54 10.97 13 9 15 1011.4 0 24.1 26.9 44.3 116.6 116.5 402.8
08/05 03:10 22.7 55 11.11 13.2 11 17 1011.4 0 24.4 27.2 44.9 118.1 118.4 409.6
08/05 03:00 22.8 54 10.97 13 13 22 1011.4 0 24.1 26.9 44.3 116.6 116.5 402.8
08/05 02:50 23.1 53 10.96 13.2 15 20 1011.6 0 24.1 26.8 44.1 116.0 115.9 401.0
08/05 02:40 23.1 53 10.96 13 15 22 1011.7 0 24.1 26.8 44.1 116.0 115.9 401.0
08/05 02:30 23.1 53 10.96 13 13 20 1011.8 0 24.1 26.8 44.1 116.1 115.9 401.0
08/05 02:20 23.3 52 10.87 13.1 15 19 1011.9 0 23.9 26.6 43.6 114.9 114.5 396.1
08/05 02:10 23.2 53 11.02 13.1 11 17 1011.9 0 24.2 26.9 44.3 116.5 116.5 403.2
08/05 02:00 23.5 52 11 13.1 13 28 1011.9 0 24.2 26.8 44.0 115.9 115.9 400.8
08/05 01:50 23.6 51 10.85 13.1 19 26 1012 0 23.8 26.5 43.4 114.2 113.8 393.8
08/05 01:40 23.5 51 10.78 13 11 19 1012.1 0 23.7 26.4 43.2 113.7 113.1 391.2
08/05 01:30 23.7 51 10.91 13 13 24 1012.2 0 24.0 26.6 43.6 114.7 114.5 395.9
08/05 01:20 23.8 50 10.76 13 13 20 1012.3 0 23.6 26.3 43.0 113.1 112.5 389.0
08/05 01:10 23.8 50 10.76 13 17 22 1012.3 0 23.6 26.3 43.0 113.1 112.5 389.0
08/05 01:00 23.8 51 10.97 13.1 11 20 1012.3 0 24.1 26.7 43.8 115.2 115.1 398.1
08/05 00:50 23.7 51 10.91 13.2 15 19 1012.4 0 24.0 26.6 43.6 114.8 114.5 396.0
08/05 00:40 23.5 52 11 13.3 13 22 1012.4 0 24.2 26.8 44.1 116.0 115.9 400.9
08/05 00:30 23.2 54 11.23 13.4 11 19 1012.5 0 24.7 27.2 45.1 118.8 119.3 412.7
08/05 00:20 23.2 53 11.02 13.3 9 13 1012.5 0 24.2 26.9 44.3 116.6 116.6 403.4
08/05 00:10 23.2 54 11.23 13.6 9 13 1012.6 0 24.7 27.3 45.1 118.8 119.3 412.7
08/05 00:00 23.3 55 11.5 13.8 11 17 1012.7 0 25.2 27.6 46.1 121.4 122.6 424.2
07/05 23:50 23.3 53 11.08 13.4 9 17 1012.8 0 24.3 27.0 44.5 117.1 117.2 405.6
07/05 23:40 23.5 53 11.21 13.6 11 17 1012.8 0 24.6 27.1 44.9 118.1 118.6 410.3
07/05 23:30 23.5 54 11.42 13.7 11 19 1012.9 0 25.0 27.5 45.7 120.3 121.2 419.7
07/05 23:20 23.9 52 11.25 13.7 7 9 1012.9 0 24.7 27.1 44.8 118.0 118.5 410.0
07/05 23:10 23.8 52 11.19 13.6 13 17 1012.9 0 24.5 27.0 44.6 117.5 117.9 407.9
07/05 23:00 23.9 52 11.25 13.7 11 19 1012.9 0 24.7 27.1 44.8 118.0 118.5 410.0
07/05 22:50 23.9 52 11.25 13.7 13 19 1013 0 24.7 27.1 44.8 118.0 118.5 410.1
07/05 22:40 24 53 11.53 13.8 9 15 1013 0 25.2 27.5 45.8 120.7 121.9 421.9
07/05 22:30 24.1 53 11.6 13.9 9 17 1013 0 25.4 27.6 46.0 121.3 122.6 424.5
07/05 22:20 23.9 54 11.68 14 7 11 1013 0 25.6 27.8 46.5 122.4 123.9 429.1
07/05 22:10 24.1 54 11.81 14.2 11 15 1013 0 25.8 27.9 46.9 123.4 125.3 433.8
07/05 22:00 24.3 53 11.73 14.1 9 15 1013 0 25.6 27.7 46.4 122.3 123.9 429.2
07/05 21:50 24.7 50 11.32 13.8 9 13 1013.1 0 24.8 27.0 44.6 117.5 118.2 409.1
07/05 21:40 24.3 53 11.73 14.1 7 9 1013.2 0 25.6 27.7 46.4 122.3 124.0 429.3
07/05 21:30 24.4 53 11.79 14.2 9 15 1013.1 0 25.8 27.8 46.6 122.8 124.6 431.3
07/05 21:20 24.1 55 12.03 14.5 9 11 1013.1 0 26.3 28.2 47.7 125.8 128.1 443.7
07/05 21:10 24.1 55 12.03 14.7 4 7 1013 0 26.3 28.2 47.7 125.7 128.1 443.7
07/05 21:00 24 56 12.18 14.7 6 9 1012.9 0 26.6 28.5 48.4 127.5 130.2 451.0
07/05 20:50 24.5 53 11.86 14.5 6 7 1012.9 0 25.9 27.8 46.8 123.3 125.3 433.8
07/05 20:40 23.9 61 13.2 15.9 6 6 1012.9 0 28.8 30.2 52.5 138.5 143.8 498.4
07/05 20:30 24.6 54 12.15 14.7 6 9 1012.7 0 26.5 28.3 47.9 126.2 128.8 446.2
07/05 20:20 24.9 52 11.9 14.6 6 7 1012.5 0 26.0 27.8 46.7 123.1 125.1 433.3
07/05 20:10 24.8 52 11.84 14.5 7 11 1012.4 0 25.9 27.7 46.5 122.6 124.5 431.1
07/05 20:00 25.5 50 11.84 14.3 7 11 1012.3 0 25.8 27.5 46.1 121.5 123.4 427.3
07/05 19:50 24.3 58 12.83 15.5 7 11 1012.1 0 28.0 29.4 50.7 133.8 138.1 478.5
07/05 19:40 23.9 61 13.2 16.1 6 7 1012.1 0 28.8 30.2 52.5 138.4 143.7 498.1
07/05 19:30 23.7 66 14.12 17 6 7 1012.1 0 30.7 31.8 56.4 149.0 156.6 543.0

Last Refresh: 08-May-2026 12:08:51

Bureau of Meteorology